Time;durP1;ratioP1;P1;durP2;ratioP2;P2;SDS_P1;SDS_P2;PMS_P1;PMS_P2;Temp;Humidity;BMP_temperature;BMP_pressure;BME280_temperature;BME280_humidity;BME280_pressure;Samples;Min_cycle;Max_cycle;Signal;HPM_P1;HPM_P2
2024/01/04 00:00:23;;;;;;;21.50;10.67;;;;;;;;;;4947989;28;20262;-72
2024/01/04 00:02:49;;;;;;;22.77;10.70;;;;;;;;;;4957323;28;20247;-73
2024/01/04 00:05:15;;;;;;;21.57;10.33;;;;;;;;;;4954972;28;20229;-73
2024/01/04 00:07:40;;;;;;;21.37;10.43;;;;;;;;;;4939950;28;20745;-72
2024/01/04 00:10:06;;;;;;;24.00;10.47;;;;;;;;;;4965157;28;20291;-74
2024/01/04 00:12:31;;;;;;;22.23;10.93;;;;;;;;;;4947594;28;20236;-73
2024/01/04 00:14:59;;;;;;;19.50;10.17;;;;;;;;;;4949102;28;20321;-74
2024/01/04 00:17:24;;;;;;;20.83;10.43;;;;;;;;;;4947703;28;20307;-74
2024/01/04 00:19:50;;;;;;;22.37;10.80;;;;;;;;;;4963730;28;20864;-74
2024/01/04 00:22:15;;;;;;;22.77;11.23;;;;;;;;;;4957204;28;20220;-74
2024/01/04 00:24:40;;;;;;;27.70;11.90;;;;;;;;;;4946934;28;20230;-75
2024/01/04 00:27:06;;;;;;;25.37;12.17;;;;;;;;;;4964882;28;20220;-74
2024/01/04 00:29:31;;;;;;;28.60;12.57;;;;;;;;;;4964881;28;20227;-74
2024/01/04 00:31:56;;;;;;;30.20;13.10;;;;;;;;;;4946675;28;20235;-74
2024/01/04 00:34:22;;;;;;;31.47;13.47;;;;;;;;;;4947546;28;20234;-74
2024/01/04 00:36:48;;;;;;;29.23;13.37;;;;;;;;;;4946098;28;21000;-74
2024/01/04 00:39:13;;;;;;;30.47;13.93;;;;;;;;;;4937860;28;20227;-75
2024/01/04 00:41:38;;;;;;;30.00;13.83;;;;;;;;;;4964243;28;20224;-74
2024/01/04 00:44:04;;;;;;;33.90;13.80;;;;;;;;;;4961893;28;20224;-74
2024/01/04 00:46:29;;;;;;;30.17;12.83;;;;;;;;;;4956910;28;20248;-74
2024/01/04 00:48:54;;;;;;;25.93;12.60;;;;;;;;;;4963909;28;20234;-74
2024/01/04 00:51:20;;;;;;;27.47;12.90;;;;;;;;;;4964307;28;20689;-74
2024/01/04 00:53:45;;;;;;;33.70;15.83;;;;;;;;;;4956865;28;20223;-73
2024/01/04 00:56:10;;;;;;;33.77;15.87;;;;;;;;;;4959587;28;20706;-73
2024/01/04 00:58:36;;;;;;;36.43;16.07;;;;;;;;;;4962720;28;20263;-74
2024/01/04 01:01:03;;;;;;;38.60;16.70;;;;;;;;;;4962659;28;20227;-73
2024/01/04 01:03:29;;;;;;;34.47;15.93;;;;;;;;;;4962415;28;21054;-73
2024/01/04 01:05:54;;;;;;;38.90;16.73;;;;;;;;;;4963419;28;20263;-73
2024/01/04 01:08:19;;;;;;;34.70;16.00;;;;;;;;;;4952700;28;20227;-73
2024/01/04 01:10:45;;;;;;;30.00;14.00;;;;;;;;;;4963361;28;20302;-74
2024/01/04 01:13:10;;;;;;;27.03;13.33;;;;;;;;;;4948217;28;20283;-74
2024/01/04 01:15:35;;;;;;;27.37;13.10;;;;;;;;;;4965178;28;20259;-74
2024/01/04 01:18:01;;;;;;;26.63;12.43;;;;;;;;;;4962295;28;20716;-73
2024/01/04 01:20:27;;;;;;;26.60;12.70;;;;;;;;;;4945055;28;20633;-73
2024/01/04 01:22:52;;;;;;;27.13;13.17;;;;;;;;;;4947843;28;20231;-74
2024/01/04 01:25:17;;;;;;;29.27;13.57;;;;;;;;;;4956139;28;20228;-71
2024/01/04 01:27:43;;;;;;;28.53;14.00;;;;;;;;;;4955008;28;20227;-71
2024/01/04 01:30:08;;;;;;;28.33;13.73;;;;;;;;;;4955197;28;20334;-71
2024/01/04 01:32:34;;;;;;;27.93;13.57;;;;;;;;;;4965676;28;20724;-72
2024/01/04 01:34:59;;;;;;;27.63;13.63;;;;;;;;;;4954822;28;20227;-72
2024/01/04 01:37:24;;;;;;;27.23;12.80;;;;;;;;;;4964354;28;20220;-72
2024/01/04 01:39:50;;;;;;;27.40;12.17;;;;;;;;;;4961775;28;20646;-72
2024/01/04 01:42:16;;;;;;;27.07;12.47;;;;;;;;;;4946112;28;20230;-72
2024/01/04 01:44:41;;;;;;;27.93;12.30;;;;;;;;;;4946353;28;20760;-72
2024/01/04 01:47:06;;;;;;;26.10;12.23;;;;;;;;;;4962533;28;20255;-72
2024/01/04 01:49:32;;;;;;;24.20;11.67;;;;;;;;;;4959006;28;20240;-72
2024/01/04 01:51:57;;;;;;;23.87;11.77;;;;;;;;;;4942591;28;20251;-72
2024/01/04 01:54:22;;;;;;;25.00;11.53;;;;;;;;;;4946937;28;20673;-72
2024/01/04 01:56:48;;;;;;;22.20;11.87;;;;;;;;;;4946093;28;20231;-71
2024/01/04 01:59:13;;;;;;;21.63;10.80;;;;;;;;;;4959871;28;20259;-72
2024/01/04 02:01:38;;;;;;;22.23;10.70;;;;;;;;;;4962532;28;20741;-72
2024/01/04 02:04:04;;;;;;;24.70;10.43;;;;;;;;;;4957855;28;20274;-72
2024/01/04 02:06:29;;;;;;;20.10;9.93;;;;;;;;;;4955844;28;20243;-71
2024/01/04 02:08:54;;;;;;;23.43;10.40;;;;;;;;;;4945816;28;20595;-73
2024/01/04 02:11:22;;;;;;;20.40;9.90;;;;;;;;;;4959491;28;20264;-72
2024/01/04 02:13:47;;;;;;;21.07;9.43;;;;;;;;;;4964189;28;20283;-72
2024/01/04 02:16:13;;;;;;;20.07;9.37;;;;;;;;;;4967210;28;20255;-72
2024/01/04 02:18:38;;;;;;;22.80;9.20;;;;;;;;;;4949093;28;20240;-72
2024/01/04 02:21:05;;;;;;;22.73;9.43;;;;;;;;;;4948991;28;20232;-73
2024/01/04 02:23:31;;;;;;;19.17;8.57;;;;;;;;;;4966400;28;20768;-74
2024/01/04 02:25:56;;;;;;;17.73;9.00;;;;;;;;;;4959062;28;20623;-73
2024/01/04 02:28:21;;;;;;;19.80;8.83;;;;;;;;;;4949289;28;20232;-73
2024/01/04 02:30:47;;;;;;;16.83;8.70;;;;;;;;;;4960887;28;20831;-73
2024/01/04 02:33:12;;;;;;;15.73;7.90;;;;;;;;;;4949511;28;20290;-74
2024/01/04 02:35:37;;;;;;;18.13;8.63;;;;;;;;;;4958666;28;20669;-73
2024/01/04 02:38:03;;;;;;;17.10;8.23;;;;;;;;;;4966081;28;20850;-74
2024/01/04 02:40:29;;;;;;;16.10;8.67;;;;;;;;;;4966173;28;20236;-73
2024/01/04 02:42:54;;;;;;;16.37;8.40;;;;;;;;;;4959582;28;20315;-74
2024/01/04 02:45:19;;;;;;;17.53;8.17;;;;;;;;;;4960625;28;20323;-73
2024/01/04 02:47:45;;;;;;;17.70;8.70;;;;;;;;;;4948380;28;20224;-74
2024/01/04 02:50:11;;;;;;;15.50;7.77;;;;;;;;;;4966541;28;20243;-74
2024/01/04 02:52:37;;;;;;;16.93;8.27;;;;;;;;;;4958106;28;20312;-74
2024/01/04 02:55:02;;;;;;;15.40;7.90;;;;;;;;;;4959500;28;20311;-74
2024/01/04 02:57:28;;;;;;;16.67;8.17;;;;;;;;;;4948953;28;20224;-74
2024/01/04 02:59:53;;;;;;;16.10;8.33;;;;;;;;;;4948098;28;20228;-73
2024/01/04 03:02:18;;;;;;;16.27;8.27;;;;;;;;;;4958737;28;20282;-74
2024/01/04 03:04:44;;;;;;;18.03;7.97;;;;;;;;;;4961029;28;20224;-73
2024/01/04 03:07:10;;;;;;;17.80;8.03;;;;;;;;;;4964105;28;20224;-74
2024/01/04 03:09:35;;;;;;;15.23;7.63;;;;;;;;;;4965944;28;20251;-74
2024/01/04 03:12:01;;;;;;;16.57;8.30;;;;;;;;;;4966256;28;20220;-74
2024/01/04 03:14:26;;;;;;;16.57;7.53;;;;;;;;;;4957749;28;20228;-74
2024/01/04 03:16:51;;;;;;;16.40;7.93;;;;;;;;;;4963918;28;20232;-75
2024/01/04 03:19:17;;;;;;;14.40;7.67;;;;;;;;;;4959437;28;20228;-73
2024/01/04 03:21:42;;;;;;;18.13;8.47;;;;;;;;;;4948279;28;20236;-74
2024/01/04 03:24:08;;;;;;;19.53;8.43;;;;;;;;;;4958731;28;20228;-74
2024/01/04 03:26:33;;;;;;;17.50;8.80;;;;;;;;;;4956277;28;20240;-73
2024/01/04 03:28:58;;;;;;;17.60;8.83;;;;;;;;;;4959279;28;20655;-74
2024/01/04 03:31:24;;;;;;;19.53;9.67;;;;;;;;;;4963873;28;20286;-74
2024/01/04 03:33:49;;;;;;;19.43;9.90;;;;;;;;;;4956833;28;20278;-74
2024/01/04 03:36:15;;;;;;;20.13;9.97;;;;;;;;;;4958760;28;20237;-74
2024/01/04 03:38:40;;;;;;;25.23;11.07;;;;;;;;;;4945884;28;20216;-73
2024/01/04 03:41:06;;;;;;;21.23;10.23;;;;;;;;;;4964415;28;20610;-74
2024/01/04 03:43:32;;;;;;;19.87;9.90;;;;;;;;;;4963156;28;20242;-74
2024/01/04 03:45:57;;;;;;;20.43;10.30;;;;;;;;;;4957571;28;20227;-74
2024/01/04 03:48:23;;;;;;;20.70;9.83;;;;;;;;;;4959044;28;20376;-73
2024/01/04 03:50:49;;;;;;;21.20;10.00;;;;;;;;;;4965141;28;20231;-73
2024/01/04 03:53:15;;;;;;;20.10;9.73;;;;;;;;;;4947964;28;20716;-73
2024/01/04 03:55:40;;;;;;;19.37;9.87;;;;;;;;;;4964567;28;20239;-73
2024/01/04 03:58:05;;;;;;;19.20;9.97;;;;;;;;;;4965281;28;20228;-73
2024/01/04 04:00:31;;;;;;;20.23;9.60;;;;;;;;;;4958988;28;20310;-74
2024/01/04 04:02:56;;;;;;;19.93;10.07;;;;;;;;;;4958803;28;20811;-74
2024/01/04 04:05:22;;;;;;;21.37;9.73;;;;;;;;;;4964668;28;20231;-73
2024/01/04 04:07:47;;;;;;;18.40;9.30;;;;;;;;;;4963682;28;20330;-73
2024/01/04 04:10:12;;;;;;;20.60;9.33;;;;;;;;;;4963477;28;20358;-73
2024/01/04 04:12:38;;;;;;;16.33;8.53;;;;;;;;;;4960107;28;20714;-73
2024/01/04 04:15:03;;;;;;;17.80;9.07;;;;;;;;;;4957299;28;20228;-74
2024/01/04 04:17:29;;;;;;;16.10;8.07;;;;;;;;;;4959372;28;20228;-74
2024/01/04 04:19:54;;;;;;;19.17;8.80;;;;;;;;;;4962577;28;20232;-74
2024/01/04 04:22:19;;;;;;;17.77;8.73;;;;;;;;;;4946994;28;20240;-73
2024/01/04 04:24:45;;;;;;;15.33;8.17;;;;;;;;;;4964445;28;20224;-74
2024/01/04 04:27:10;;;;;;;19.17;8.40;;;;;;;;;;4964772;28;20780;-74
2024/01/04 04:29:40;;;;;;;16.80;8.20;;;;;;;;;;4956487;28;20359;-74
2024/01/04 04:32:05;;;;;;;13.90;7.53;;;;;;;;;;4964046;28;20232;-74
2024/01/04 04:34:30;;;;;;;14.67;7.53;;;;;;;;;;4946377;28;20226;-73
2024/01/04 04:36:56;;;;;;;15.83;7.60;;;;;;;;;;4964457;28;20250;-74
2024/01/04 04:39:21;;;;;;;14.80;7.23;;;;;;;;;;4963882;28;20355;-73
2024/01/04 04:41:46;;;;;;;14.13;7.40;;;;;;;;;;4964252;28;20228;-73
2024/01/04 04:44:12;;;;;;;15.40;7.40;;;;;;;;;;4957102;28;20228;-74
2024/01/04 04:46:37;;;;;;;14.40;7.50;;;;;;;;;;4958516;28;20286;-73
2024/01/04 04:49:02;;;;;;;15.00;7.10;;;;;;;;;;4955384;28;20224;-73
2024/01/04 04:51:28;;;;;;;15.33;7.57;;;;;;;;;;4960158;28;20224;-72
2024/01/04 04:53:53;;;;;;;12.63;6.67;;;;;;;;;;4946419;28;20789;-74
2024/01/04 04:56:18;;;;;;;12.10;7.00;;;;;;;;;;4941265;28;20287;-73
2024/01/04 04:58:44;;;;;;;13.37;6.77;;;;;;;;;;4963725;28;20231;-73
2024/01/04 05:01:09;;;;;;;14.03;7.17;;;;;;;;;;4954632;28;20228;-74
2024/01/04 05:03:38;;;;;;;13.23;7.00;;;;;;;;;;4962610;28;20228;-74
2024/01/04 05:06:05;;;;;;;15.40;7.17;;;;;;;;;;4943857;28;20236;-73
2024/01/04 05:08:30;;;;;;;15.37;6.83;;;;;;;;;;4957158;28;20298;-74
2024/01/04 05:10:56;;;;;;;12.83;6.77;;;;;;;;;;4963188;28;20804;-73
2024/01/04 05:13:21;;;;;;;14.00;6.80;;;;;;;;;;4946957;28;20220;-72
2024/01/04 05:15:47;;;;;;;13.47;6.50;;;;;;;;;;4966955;28;20239;-73
2024/01/04 05:18:12;;;;;;;13.73;6.60;;;;;;;;;;4951133;28;20228;-73
2024/01/04 05:20:38;;;;;;;13.90;6.10;;;;;;;;;;4958304;28;20232;-73
2024/01/04 05:23:03;;;;;;;13.10;6.50;;;;;;;;;;4963818;28;20258;-73
2024/01/04 05:25:28;;;;;;;15.73;7.60;;;;;;;;;;4964401;28;20235;-74
2024/01/04 05:27:54;;;;;;;19.90;9.23;;;;;;;;;;4962198;28;21095;-74
2024/01/04 05:30:19;;;;;;;19.57;9.10;;;;;;;;;;4946120;28;20236;-73
2024/01/04 05:32:44;;;;;;;21.47;9.87;;;;;;;;;;4962781;28;20761;-73
2024/01/04 05:35:11;;;;;;;20.80;9.50;;;;;;;;;;4946833;28;20935;-73
2024/01/04 05:37:37;;;;;;;19.27;9.67;;;;;;;;;;4958152;28;20298;-73
2024/01/04 05:40:03;;;;;;;17.30;8.67;;;;;;;;;;4963542;28;20220;-74
2024/01/04 05:42:29;;;;;;;20.63;8.83;;;;;;;;;;4963986;28;20228;-73
2024/01/04 05:44:54;;;;;;;20.50;9.70;;;;;;;;;;4948418;28;20415;-74
2024/01/04 05:47:19;;;;;;;23.47;9.37;;;;;;;;;;4962976;28;20220;-74
2024/01/04 05:49:45;;;;;;;19.37;10.07;;;;;;;;;;4971113;28;20248;-74
2024/01/04 05:52:10;;;;;;;21.07;9.63;;;;;;;;;;4961383;28;20314;-72
2024/01/04 05:54:35;;;;;;;18.10;9.23;;;;;;;;;;4963401;28;20297;-73
2024/01/04 05:57:01;;;;;;;23.13;8.80;;;;;;;;;;4961823;28;20694;-73
2024/01/04 05:59:26;;;;;;;16.83;8.57;;;;;;;;;;4949849;28;20633;-73
2024/01/04 06:01:51;;;;;;;22.30;9.43;;;;;;;;;;4967196;28;20259;-73
2024/01/04 06:04:17;;;;;;;22.03;8.83;;;;;;;;;;4967583;28;20231;-73
2024/01/04 06:06:42;;;;;;;21.60;8.97;;;;;;;;;;4962227;28;20240;-73
2024/01/04 06:09:07;;;;;;;20.07;9.17;;;;;;;;;;4966883;28;20239;-73
2024/01/04 06:11:33;;;;;;;19.07;9.10;;;;;;;;;;4949465;28;20816;-73
2024/01/04 06:13:58;;;;;;;20.47;8.93;;;;;;;;;;4962432;28;20690;-73
2024/01/04 06:16:23;;;;;;;18.23;8.77;;;;;;;;;;4965413;28;20232;-73
2024/01/04 06:18:49;;;;;;;23.23;9.37;;;;;;;;;;4966037;28;20224;-73
2024/01/04 06:21:15;;;;;;;21.13;9.10;;;;;;;;;;4966775;28;20231;-73
2024/01/04 06:23:41;;;;;;;19.33;8.37;;;;;;;;;;4962936;28;20263;-73
2024/01/04 06:26:06;;;;;;;18.17;7.97;;;;;;;;;;4961507;28;20956;-75
2024/01/04 06:28:32;;;;;;;17.60;7.77;;;;;;;;;;4948823;28;20228;-73
2024/01/04 06:30:57;;;;;;;18.27;8.13;;;;;;;;;;4965910;28;20236;-73
2024/01/04 06:33:22;;;;;;;18.47;7.83;;;;;;;;;;4949022;28;20677;-74
2024/01/04 06:35:47;;;;;;;17.20;7.73;;;;;;;;;;4959626;28;20294;-74
2024/01/04 06:38:13;;;;;;;20.50;7.80;;;;;;;;;;4966461;28;20248;-74
2024/01/04 06:40:38;;;;;;;20.73;7.23;;;;;;;;;;4964209;28;20287;-74
2024/01/04 06:43:08;;;;;;;20.23;8.50;;;;;;;;;;4961081;28;20252;-73
2024/01/04 06:45:33;;;;;;;16.33;7.83;;;;;;;;;;4957064;28;20248;-74
2024/01/04 06:47:59;;;;;;;21.73;8.50;;;;;;;;;;4948607;28;20313;-74
2024/01/04 06:50:24;;;;;;;16.97;8.03;;;;;;;;;;4948430;28;20268;-73
2024/01/04 06:52:49;;;;;;;18.43;8.63;;;;;;;;;;4966811;28;20314;-74
2024/01/04 06:55:15;;;;;;;18.93;8.23;;;;;;;;;;4948749;28;20235;-74
2024/01/04 06:57:40;;;;;;;16.20;8.27;;;;;;;;;;4948306;28;20223;-74
2024/01/04 07:00:07;;;;;;;18.77;8.80;;;;;;;;;;4948919;28;20258;-74
2024/01/04 07:02:35;;;;;;;25.30;9.07;;;;;;;;;;4966285;28;20228;-74
2024/01/04 07:05:03;;;;;;;18.57;9.20;;;;;;;;;;4950526;28;20224;-74
2024/01/04 07:07:28;;;;;;;19.63;9.20;;;;;;;;;;4966400;28;20382;-74
2024/01/04 07:09:53;;;;;;;24.73;8.97;;;;;;;;;;4966253;28;20326;-74
2024/01/04 07:12:19;;;;;;;21.27;9.10;;;;;;;;;;4964257;28;20258;-71
2024/01/04 07:14:44;;;;;;;24.60;10.37;;;;;;;;;;4948535;28;20310;-71
2024/01/04 07:17:09;;;;;;;21.63;9.93;;;;;;;;;;4965122;28;20234;-72
2024/01/04 07:19:35;;;;;;;23.80;9.67;;;;;;;;;;4966843;28;20693;-72
2024/01/04 07:22:00;;;;;;;20.30;10.13;;;;;;;;;;4967093;28;20224;-72
2024/01/04 07:24:25;;;;;;;23.07;10.20;;;;;;;;;;4956937;28;20299;-73
2024/01/04 07:26:51;;;;;;;22.10;9.80;;;;;;;;;;4964346;28;20294;-72
2024/01/04 07:29:16;;;;;;;21.77;10.20;;;;;;;;;;4947331;28;20247;-73
2024/01/04 07:31:42;;;;;;;25.03;9.60;;;;;;;;;;4940877;28;20903;-73
2024/01/04 07:34:07;;;;;;;23.67;8.77;;;;;;;;;;4958943;28;20243;-74
2024/01/04 07:36:34;;;;;;;25.37;9.70;;;;;;;;;;4964452;28;20232;-73
2024/01/04 07:38:59;;;;;;;18.03;8.67;;;;;;;;;;4962716;28;20637;-74
2024/01/04 07:41:25;;;;;;;22.47;9.00;;;;;;;;;;4947564;28;20228;-74
2024/01/04 07:43:50;;;;;;;16.10;8.47;;;;;;;;;;4946358;28;20228;-73
2024/01/04 07:46:15;;;;;;;17.83;7.93;;;;;;;;;;4963812;28;20221;-73
2024/01/04 07:48:41;;;;;;;16.40;7.67;;;;;;;;;;4964410;28;20254;-74
2024/01/04 07:51:06;;;;;;;15.83;7.90;;;;;;;;;;4963179;28;20595;-74
2024/01/04 07:53:31;;;;;;;15.03;8.30;;;;;;;;;;4957763;28;20311;-73
2024/01/04 07:55:57;;;;;;;17.53;8.47;;;;;;;;;;4963329;28;20254;-74
2024/01/04 07:58:22;;;;;;;21.13;8.67;;;;;;;;;;4962211;28;20241;-74
2024/01/04 08:00:47;;;;;;;18.63;8.27;;;;;;;;;;4945424;28;20228;-74
2024/01/04 08:03:13;;;;;;;16.37;7.97;;;;;;;;;;4956560;28;20220;-73
2024/01/04 08:05:38;;;;;;;18.63;8.00;;;;;;;;;;4963228;28;20239;-73
2024/01/04 08:08:04;;;;;;;19.03;8.20;;;;;;;;;;4946497;28;20894;-74
2024/01/04 08:10:30;;;;;;;17.27;7.77;;;;;;;;;;4955374;28;20231;-74
2024/01/04 08:12:56;;;;;;;14.93;8.10;;;;;;;;;;4957823;28;20228;-73
2024/01/04 08:15:22;;;;;;;18.87;8.50;;;;;;;;;;4955828;28;20763;-74
2024/01/04 08:17:47;;;;;;;21.73;8.60;;;;;;;;;;4961020;28;20224;-73
2024/01/04 08:20:13;;;;;;;22.60;8.73;;;;;;;;;;4965936;28;20371;-74
2024/01/04 08:22:39;;;;;;;32.23;10.90;;;;;;;;;;4944197;28;20228;-74
2024/01/04 08:25:04;;;;;;;43.40;19.23;;;;;;;;;;4962449;28;20298;-74
2024/01/04 08:27:30;;;;;;;49.33;22.17;;;;;;;;;;4958392;28;20235;-74
2024/01/04 08:29:55;;;;;;;58.10;26.47;;;;;;;;;;4954116;28;20278;-74
2024/01/04 08:32:20;;;;;;;63.63;26.90;;;;;;;;;;4938511;28;20240;-75
2024/01/04 08:34:46;;;;;;;65.97;28.03;;;;;;;;;;4964195;28;20307;-73
2024/01/04 08:37:13;;;;;;;67.30;28.40;;;;;;;;;;4961567;28;20255;-72
2024/01/04 08:39:38;;;;;;;66.73;30.37;;;;;;;;;;4961578;28;20296;-74
2024/01/04 08:42:04;;;;;;;64.77;29.63;;;;;;;;;;4946799;28;20246;-73
2024/01/04 08:44:29;;;;;;;71.67;31.00;;;;;;;;;;4952945;28;20229;-73
2024/01/04 08:46:55;;;;;;;77.30;32.23;;;;;;;;;;4961263;28;20900;-74
2024/01/04 08:49:20;;;;;;;74.00;32.70;;;;;;;;;;4960819;28;20236;-74
2024/01/04 08:51:45;;;;;;;75.47;32.43;;;;;;;;;;4962010;28;20876;-74
2024/01/04 08:54:11;;;;;;;71.90;31.23;;;;;;;;;;4962991;28;20683;-74
2024/01/04 08:56:36;;;;;;;65.50;29.30;;;;;;;;;;4956752;28;20224;-73
2024/01/04 08:59:02;;;;;;;58.30;28.53;;;;;;;;;;4946099;28;20283;-74
2024/01/04 09:01:28;;;;;;;56.77;25.67;;;;;;;;;;4952707;28;20247;-74
2024/01/04 09:03:53;;;;;;;59.10;27.37;;;;;;;;;;4959143;28;20664;-73
2024/01/04 09:06:19;;;;;;;56.10;24.83;;;;;;;;;;4939405;28;21278;-73
2024/01/04 09:08:44;;;;;;;57.77;24.97;;;;;;;;;;4935815;28;20302;-73
2024/01/04 09:11:09;;;;;;;51.17;22.93;;;;;;;;;;4957538;28;20228;-73
2024/01/04 09:13:35;;;;;;;46.67;22.87;;;;;;;;;;4961414;28;20228;-74
2024/01/04 09:16:00;;;;;;;55.87;23.47;;;;;;;;;;4945404;28;20220;-74
2024/01/04 09:18:26;;;;;;;38.30;17.87;;;;;;;;;;4964735;28;20330;-74
2024/01/04 09:20:51;;;;;;;41.97;18.83;;;;;;;;;;4962518;28;20335;-74
2024/01/04 09:23:17;;;;;;;42.60;19.30;;;;;;;;;;4962296;28;20228;-73
2024/01/04 09:25:42;;;;;;;36.67;15.57;;;;;;;;;;4965615;28;20231;-74
2024/01/04 09:28:08;;;;;;;25.20;12.60;;;;;;;;;;4967822;28;20223;-73
2024/01/04 09:30:33;;;;;;;25.57;11.37;;;;;;;;;;4968434;28;20239;-74
2024/01/04 09:32:58;;;;;;;21.80;9.97;;;;;;;;;;4960101;28;20228;-73
2024/01/04 09:35:24;;;;;;;23.37;11.13;;;;;;;;;;4966540;28;20232;-74
2024/01/04 09:37:52;;;;;;;19.23;8.47;;;;;;;;;;4967178;28;20223;-74
2024/01/04 09:40:19;;;;;;;15.23;7.57;;;;;;;;;;4948626;28;20297;-74
2024/01/04 09:42:44;;;;;;;17.47;6.70;;;;;;;;;;4967475;28;20409;-74
2024/01/04 09:45:13;;;;;;;12.80;6.60;;;;;;;;;;4950645;28;21000;-73
2024/01/04 09:47:39;;;;;;;13.20;6.57;;;;;;;;;;4949901;28;20220;-74
2024/01/04 09:50:05;;;;;;;16.43;7.63;;;;;;;;;;4956655;28;20309;-72
2024/01/04 09:52:30;;;;;;;16.97;6.60;;;;;;;;;;4950043;28;20220;-73
2024/01/04 09:54:56;;;;;;;14.60;6.97;;;;;;;;;;4957330;28;20236;-74
2024/01/04 09:57:21;;;;;;;14.47;6.30;;;;;;;;;;4963968;28;20605;-72
2024/01/04 09:59:46;;;;;;;16.40;6.10;;;;;;;;;;4964560;28;20336;-75
2024/01/04 10:02:12;;;;;;;15.80;5.30;;;;;;;;;;4965536;28;20406;-72
2024/01/04 10:04:38;;;;;;;9.30;5.40;;;;;;;;;;4949104;28;20671;-74
2024/01/04 10:07:03;;;;;;;12.40;5.40;;;;;;;;;;4958207;28;20284;-73
2024/01/04 10:09:36;;;;;;;11.90;5.87;;;;;;;;;;4962125;28;20283;-74
2024/01/04 10:12:05;;;;;;;12.13;5.60;;;;;;;;;;4948325;28;20321;-73
2024/01/04 10:14:31;;;;;;;12.13;6.70;;;;;;;;;;4963100;28;20232;-73
2024/01/04 10:16:56;;;;;;;16.03;6.60;;;;;;;;;;4960536;28;20243;-73
2024/01/04 10:19:22;;;;;;;14.97;6.73;;;;;;;;;;4958272;28;20339;-73
2024/01/04 10:21:48;;;;;;;11.93;6.57;;;;;;;;;;4966260;28;20251;-72
2024/01/04 10:24:15;;;;;;;13.17;6.73;;;;;;;;;;4950083;28;20667;-73
2024/01/04 10:26:44;;;;;;;14.57;7.00;;;;;;;;;;4962662;28;20228;-73
2024/01/04 10:29:09;;;;;;;14.50;7.40;;;;;;;;;;4948110;28;20232;-73
2024/01/04 10:31:35;;;;;;;16.10;7.80;;;;;;;;;;4957392;28;20236;-72
2024/01/04 10:34:01;;;;;;;17.40;7.23;;;;;;;;;;4948122;28;20223;-73
2024/01/04 10:36:29;;;;;;;14.70;6.70;;;;;;;;;;4948346;28;20235;-73
2024/01/04 10:38:58;;;;;;;17.40;6.77;;;;;;;;;;4956936;28;20236;-72
2024/01/04 10:41:25;;;;;;;12.87;5.70;;;;;;;;;;4958759;28;20243;-74
2024/01/04 10:43:50;;;;;;;16.53;7.00;;;;;;;;;;4947538;28;20738;-73
2024/01/04 10:46:15;;;;;;;19.67;7.70;;;;;;;;;;4961801;28;20252;-73
2024/01/04 10:48:41;;;;;;;15.60;7.10;;;;;;;;;;4966006;28;20286;-73
2024/01/04 10:51:09;;;;;;;15.90;6.63;;;;;;;;;;4949285;28;20614;-72
2024/01/04 10:53:35;;;;;;;16.07;7.93;;;;;;;;;;4956895;28;20301;-74
2024/01/04 10:56:03;;;;;;;16.97;8.10;;;;;;;;;;4947878;28;20224;-74
2024/01/04 10:58:29;;;;;;;18.10;7.43;;;;;;;;;;4964858;28;20937;-73
2024/01/04 11:00:54;;;;;;;15.37;7.50;;;;;;;;;;4947947;28;20228;-73
2024/01/04 11:03:20;;;;;;;18.87;7.10;;;;;;;;;;4966293;28;20223;-72
2024/01/04 11:05:45;;;;;;;19.53;7.90;;;;;;;;;;4948139;28;20240;-73
2024/01/04 11:08:10;;;;;;;13.67;6.33;;;;;;;;;;4966573;28;20224;-73
2024/01/04 11:10:38;;;;;;;15.43;6.17;;;;;;;;;;4964771;28;20310;-74
2024/01/04 11:13:03;;;;;;;15.53;6.03;;;;;;;;;;4957431;28;20220;-74
2024/01/04 11:15:29;;;;;;;17.50;6.83;;;;;;;;;;4948450;28;20236;-74
2024/01/04 11:17:59;;;;;;;14.80;6.80;;;;;;;;;;4948342;28;20236;-74
2024/01/04 11:20:28;;;;;;;15.33;5.70;;;;;;;;;;4960663;28;20290;-72
2024/01/04 11:23:11;;;;;;;11.67;5.07;;;;;;;;;;4963059;28;20661;-73
2024/01/04 11:25:37;;;;;;;9.17;4.67;;;;;;;;;;4963778;28;20298;-73
2024/01/04 11:28:03;;;;;;;11.13;5.37;;;;;;;;;;4964615;28;20220;-74
2024/01/04 11:30:29;;;;;;;17.33;5.63;;;;;;;;;;4958301;28;20244;-74
2024/01/04 11:32:54;;;;;;;15.77;5.70;;;;;;;;;;4965485;28;20224;-74
2024/01/04 11:35:20;;;;;;;14.93;6.30;;;;;;;;;;4959456;28;20232;-74
2024/01/04 11:37:52;;;;;;;14.00;6.57;;;;;;;;;;4947685;28;20658;-74
2024/01/04 11:40:26;;;;;;;13.00;6.53;;;;;;;;;;4963019;28;20257;-74
2024/01/04 11:42:52;;;;;;;18.97;6.50;;;;;;;;;;4956891;28;20614;-74
2024/01/04 11:45:17;;;;;;;20.17;7.33;;;;;;;;;;4957704;28;20228;-74
2024/01/04 11:47:44;;;;;;;16.17;7.40;;;;;;;;;;4956219;28;20702;-74
2024/01/04 11:50:13;;;;;;;17.70;6.77;;;;;;;;;;4959234;28;20248;-74
2024/01/04 11:52:39;;;;;;;17.87;7.10;;;;;;;;;;4958915;28;20323;-74
2024/01/04 11:55:04;;;;;;;16.23;7.10;;;;;;;;;;4963966;28;20314;-74
2024/01/04 11:57:30;;;;;;;15.40;6.23;;;;;;;;;;4947236;28;20236;-74
2024/01/04 11:59:55;;;;;;;14.17;6.53;;;;;;;;;;4958233;28;20239;-75
2024/01/04 12:02:20;;;;;;;15.00;6.60;;;;;;;;;;4963632;28;20239;-74
2024/01/04 12:04:46;;;;;;;16.20;7.03;;;;;;;;;;4963124;28;20224;-75
2024/01/04 12:07:12;;;;;;;19.30;7.43;;;;;;;;;;4956110;28;20244;-73
2024/01/04 12:09:37;;;;;;;15.70;7.50;;;;;;;;;;4956078;28;20244;-74
2024/01/04 12:12:04;;;;;;;13.80;6.47;;;;;;;;;;4957796;28;20220;-73
2024/01/04 12:14:29;;;;;;;10.53;4.67;;;;;;;;;;4958468;28;20235;-74
2024/01/04 12:16:55;;;;;;;12.53;6.10;;;;;;;;;;4946623;28;20232;-74
2024/01/04 12:19:20;;;;;;;16.23;7.00;;;;;;;;;;4963617;28;20232;-73
2024/01/04 12:21:45;;;;;;;15.90;6.93;;;;;;;;;;4946371;28;20232;-74
2024/01/04 12:24:11;;;;;;;12.90;6.13;;;;;;;;;;4947451;28;20259;-74
2024/01/04 12:26:36;;;;;;;4.63;1.80;;;;;;;;;;4958538;28;20282;-73
2024/01/04 12:29:02;;;;;;;4.33;1.60;;;;;;;;;;4947137;28;20303;-75
2024/01/04 12:31:27;;;;;;;5.70;1.43;;;;;;;;;;4957968;28;20232;-72
2024/01/04 12:33:53;;;;;;;3.03;1.50;;;;;;;;;;4954943;28;20250;-72
2024/01/04 12:36:22;;;;;;;6.57;1.30;;;;;;;;;;4956858;28;20300;-72
2024/01/04 12:38:48;;;;;;;4.57;1.50;;;;;;;;;;4964178;28;20224;-72
2024/01/04 12:41:23;;;;;;;3.03;1.40;;;;;;;;;;4946526;28;20290;-73
2024/01/04 12:43:50;;;;;;;3.40;1.40;;;;;;;;;;4946136;28;20964;-73
2024/01/04 12:46:18;;;;;;;6.10;1.60;;;;;;;;;;4957746;28;20251;-73
2024/01/04 12:48:43;;;;;;;4.10;1.40;;;;;;;;;;4956760;28;20220;-73
2024/01/04 12:51:11;;;;;;;2.63;1.60;;;;;;;;;;4956381;28;20243;-73
2024/01/04 12:53:36;;;;;;;2.47;1.60;;;;;;;;;;4953256;28;20339;-75
2024/01/04 12:56:02;;;;;;;3.57;1.47;;;;;;;;;;4956963;28;20378;-74
2024/01/04 12:58:27;;;;;;;2.63;1.53;;;;;;;;;;4962541;28;20224;-74
2024/01/04 13:00:53;;;;;;;7.10;1.97;;;;;;;;;;4953980;28;20228;-73
2024/01/04 13:03:18;;;;;;;4.23;1.73;;;;;;;;;;4946636;28;20286;-74
2024/01/04 13:05:43;;;;;;;3.77;1.63;;;;;;;;;;4957806;28;20274;-74
2024/01/04 13:08:09;;;;;;;2.13;1.40;;;;;;;;;;4959358;28;20307;-73
2024/01/04 13:10:34;;;;;;;3.63;1.57;;;;;;;;;;4963717;28;20295;-74
2024/01/04 13:12:59;;;;;;;2.30;1.37;;;;;;;;;;4946388;28;20275;-74
2024/01/04 13:15:25;;;;;;;3.30;1.63;;;;;;;;;;4946459;28;20673;-73
2024/01/04 13:17:50;;;;;;;5.17;1.70;;;;;;;;;;4963857;28;20330;-73
2024/01/04 13:20:15;;;;;;;6.77;1.60;;;;;;;;;;4964060;28;20236;-73
2024/01/04 13:22:44;;;;;;;4.57;1.60;;;;;;;;;;4957211;28;20227;-75
2024/01/04 13:25:10;;;;;;;5.37;1.60;;;;;;;;;;4962275;28;20236;-73
2024/01/04 13:27:35;;;;;;;3.97;1.60;;;;;;;;;;4946755;28;20216;-75
2024/01/04 13:30:00;;;;;;;4.87;1.70;;;;;;;;;;4955518;28;20240;-74
2024/01/04 13:32:26;;;;;;;2.73;1.40;;;;;;;;;;4956370;28;20235;-75
2024/01/04 13:34:51;;;;;;;5.23;1.53;;;;;;;;;;4946034;28;21375;-74
2024/01/04 13:37:16;;;;;;;6.23;2.50;;;;;;;;;;4953914;28;20227;-74
2024/01/04 13:39:42;;;;;;;4.77;1.60;;;;;;;;;;4945387;28;20753;-74
2024/01/04 13:42:07;;;;;;;3.83;1.63;;;;;;;;;;4955734;28;20228;-74
2024/01/04 13:44:34;;;;;;;3.70;1.60;;;;;;;;;;4955712;28;20960;-73
2024/01/04 13:46:59;;;;;;;4.17;1.40;;;;;;;;;;4954173;28;20228;-74
2024/01/04 13:49:24;;;;;;;4.80;1.70;;;;;;;;;;4955009;28;20857;-75
2024/01/04 13:51:50;;;;;;;7.73;1.70;;;;;;;;;;4946243;28;20645;-74
2024/01/04 13:54:18;;;;;;;6.97;1.63;;;;;;;;;;4959704;28;20246;-74
2024/01/04 13:56:44;;;;;;;4.87;1.80;;;;;;;;;;4950059;28;20216;-75
2024/01/04 13:59:10;;;;;;;5.40;1.50;;;;;;;;;;4960480;28;20722;-72
2024/01/04 14:01:35;;;;;;;6.43;1.60;;;;;;;;;;4963030;28;20360;-71
2024/01/04 14:04:00;;;;;;;9.43;1.70;;;;;;;;;;4961599;28;20231;-71
2024/01/04 14:06:25;;;;;;;4.77;1.60;;;;;;;;;;4963760;28;20240;-72
2024/01/04 14:08:53;;;;;;;4.87;1.40;;;;;;;;;;4944866;28;20652;-71
2024/01/04 14:11:19;;;;;;;4.20;1.50;;;;;;;;;;4958936;28;20228;-71
2024/01/04 14:13:44;;;;;;;2.27;1.40;;;;;;;;;;4965432;28;20212;-71
2024/01/04 14:16:09;;;;;;;4.10;1.70;;;;;;;;;;4967326;28;20692;-71
2024/01/04 14:18:35;;;;;;;6.50;1.77;;;;;;;;;;4949384;28;20223;-71